Time;durP1;ratioP1;P1;durP2;ratioP2;P2;SDS_P1;SDS_P2;PMS_P1;PMS_P2;Temp;Humidity;BMP_temperature;BMP_pressure;BME280_temperature;BME280_humidity;BME280_pressure;Samples;Min_cycle;Max_cycle;Signal;HPM_P1;HPM_P2
2021/09/21 00:03:11;;;;;;;5.17;4.77;;;;;;;15.52;47.55;98682.53;8452587;28;20205;-62
2021/09/21 00:07:14;;;;;;;7.77;5.20;;;;;;;15.33;47.91;98675.69;8453647;28;20230;-62
2021/09/21 00:11:17;;;;;;;6.10;5.27;;;;;;;15.38;47.71;98676.28;8453674;28;20199;-62
2021/09/21 00:15:22;;;;;;;6.17;5.40;;;;;;;15.38;47.71;98689.34;8453404;28;20308;-62
2021/09/21 00:19:25;;;;;;;6.43;5.20;;;;;;;15.36;47.77;98678.09;8453219;28;20198;-62
2021/09/21 00:23:28;;;;;;;7.07;5.10;;;;;;;15.36;47.41;98665.06;8453230;28;20380;-62
2021/09/21 00:27:31;;;;;;;6.90;5.20;;;;;;;15.38;47.62;98670.19;8452988;28;20529;-62
2021/09/21 00:31:38;;;;;;;5.77;5.07;;;;;;;15.34;47.82;98666.91;8452955;28;20203;-62
2021/09/21 00:35:41;;;;;;;8.50;5.93;;;;;;;15.37;47.91;98676.34;8452621;28;20272;-62
2021/09/21 00:39:45;;;;;;;6.00;5.47;;;;;;;15.13;48.27;98678.47;8452569;28;20205;-62
2021/09/21 00:43:48;;;;;;;10.57;5.83;;;;;;;15.32;47.88;98675.75;8452480;28;20205;-62
2021/09/21 00:47:53;;;;;;;7.00;5.63;;;;;;;15.25;48.02;98665.63;8452304;28;20226;-62
2021/09/21 00:51:57;;;;;;;10.00;5.43;;;;;;;15.28;47.97;98671.63;8452371;28;20198;-62
2021/09/21 00:55:59;;;;;;;8.30;5.13;;;;;;;15.34;47.98;98676.50;8451871;28;20238;-62
2021/09/21 01:00:03;;;;;;;7.40;5.63;;;;;;;15.29;48.17;98681.13;8451232;28;20209;-62
2021/09/21 01:04:07;;;;;;;7.10;5.33;;;;;;;15.24;47.73;98692.66;8451443;28;20199;-62
2021/09/21 01:08:10;;;;;;;6.60;5.07;;;;;;;15.24;47.85;98687.44;8451479;28;20226;-62
2021/09/21 01:12:13;;;;;;;7.63;5.47;;;;;;;15.20;47.64;98690.28;8451528;28;20206;-62
2021/09/21 01:16:16;;;;;;;6.87;5.73;;;;;;;15.18;47.82;98694.75;8451389;28;20209;-62
2021/09/21 01:20:21;;;;;;;7.53;5.30;;;;;;;15.19;47.91;98689.44;8451334;28;20262;-62
2021/09/21 01:24:25;;;;;;;6.73;5.47;;;;;;;15.20;48.03;98685.91;8451181;28;20205;-62
2021/09/21 01:28:28;;;;;;;7.03;5.50;;;;;;;15.19;47.66;98680.75;8451013;28;20225;-62
2021/09/21 01:32:31;;;;;;;8.03;5.70;;;;;;;15.17;47.99;98680.00;8450841;28;20501;-62
2021/09/21 01:36:34;;;;;;;5.70;5.10;;;;;;;15.13;47.89;98683.69;8450639;28;20206;-62
2021/09/21 01:40:38;;;;;;;8.13;5.50;;;;;;;15.13;47.89;98694.13;8450607;28;20198;-62
2021/09/21 01:44:41;;;;;;;6.10;5.53;;;;;;;15.11;47.73;98699.41;8450608;28;20304;-62
2021/09/21 01:48:44;;;;;;;7.53;5.77;;;;;;;15.17;47.51;98690.44;8450477;28;20222;-62
2021/09/21 01:52:53;;;;;;;7.03;5.50;;;;;;;15.11;48.41;98696.81;8450422;28;20202;-62
2021/09/21 02:01:20;;;;;;;8.40;5.20;;;;;;;15.15;48.03;98679.22;8450273;28;20310;-62
2021/09/21 02:05:23;;;;;;;7.73;5.67;;;;;;;15.07;48.81;98686.63;8450199;28;20353;-62
2021/09/21 02:09:26;;;;;;;6.63;5.57;;;;;;;15.06;48.92;98696.22;8449805;28;20225;-62
2021/09/21 02:13:30;;;;;;;7.40;5.50;;;;;;;15.04;48.76;98695.44;8449080;28;20540;-62
2021/09/21 02:17:33;;;;;;;6.93;5.63;;;;;;;15.07;48.98;98705.72;8449713;28;20210;-62
2021/09/21 02:21:36;;;;;;;6.60;5.63;;;;;;;15.03;49.46;98705.03;8449835;28;20198;-62
2021/09/21 02:25:39;;;;;;;5.80;5.03;;;;;;;15.00;49.36;98706.94;8449446;28;20208;-62
2021/09/21 02:29:44;;;;;;;5.90;5.40;;;;;;;15.02;49.56;98708.56;8449524;28;20216;-62
2021/09/21 02:33:47;;;;;;;5.73;5.23;;;;;;;15.02;49.57;98708.56;8449345;28;20225;-62
2021/09/21 02:37:49;;;;;;;7.93;5.73;;;;;;;14.99;49.85;98711.31;8449493;28;20385;-62
2021/09/21 02:41:52;;;;;;;6.63;5.73;;;;;;;14.98;49.47;98708.78;8449472;28;20198;-62
2021/09/21 02:46:01;;;;;;;6.00;5.40;;;;;;;14.96;49.57;98700.19;8449232;28;20205;-62
2021/09/21 02:50:05;;;;;;;8.07;5.93;;;;;;;14.94;49.71;98704.66;8449380;28;20487;-62
2021/09/21 02:54:08;;;;;;;6.80;5.47;;;;;;;14.94;50.19;98705.47;8448855;28;20223;-63
2021/09/21 02:58:11;;;;;;;6.57;5.87;;;;;;;14.90;50.48;98710.94;8449042;28;20490;-62
2021/09/21 03:02:16;;;;;;;7.37;5.80;;;;;;;14.88;50.74;98712.78;8448662;28;20198;-62
2021/09/21 03:06:23;;;;;;;8.37;5.80;;;;;;;14.89;50.71;98719.66;8448723;28;20222;-62
2021/09/21 03:10:34;;;;;;;6.27;5.57;;;;;;;14.89;50.79;98725.75;8448709;28;20198;-62
2021/09/21 03:18:57;;;;;;;8.60;5.97;;;;;;;14.83;50.84;98721.69;8407972;28;20209;-62
2021/09/21 03:23:00;;;;;;;5.90;5.17;;;;;;;14.83;50.63;98726.03;8449685;28;20198;-62
2021/09/21 03:27:04;;;;;;;6.70;5.63;;;;;;;14.85;50.24;98724.22;8455113;28;20226;-62
2021/09/21 03:31:07;;;;;;;5.97;5.47;;;;;;;14.84;50.47;98725.97;8454892;28;20210;-62
2021/09/21 03:35:12;;;;;;;8.87;6.10;;;;;;;14.84;50.09;98733.78;8454577;28;20250;-62
2021/09/21 03:39:15;;;;;;;7.20;5.80;;;;;;;14.79;50.09;98740.16;8454371;28;20214;-62
2021/09/21 03:43:17;;;;;;;6.10;5.50;;;;;;;14.85;50.26;98737.25;8454728;28;20210;-62
2021/09/21 03:47:20;;;;;;;6.83;6.23;;;;;;;14.85;50.16;98732.88;8454402;28;20404;-62
2021/09/21 03:51:25;;;;;;;6.97;6.20;;;;;;;14.79;50.68;98745.38;8454097;28;20198;-62
2021/09/21 03:55:28;;;;;;;6.80;6.20;;;;;;;14.82;50.53;98740.84;8453970;28;20249;-62
2021/09/21 03:59:31;;;;;;;7.23;5.73;;;;;;;14.78;50.38;98741.09;8453729;28;20494;-62
2021/09/21 04:03:34;;;;;;;7.37;6.40;;;;;;;14.73;50.71;98756.09;8453671;28;20218;-62
2021/09/21 04:07:38;;;;;;;6.67;5.97;;;;;;;14.78;50.38;98760.19;8453883;28;20559;-62
2021/09/21 04:11:41;;;;;;;7.07;6.10;;;;;;;14.71;50.40;98764.00;8453602;28;20384;-62
2021/09/21 04:15:44;;;;;;;9.10;6.07;;;;;;;14.73;50.43;98771.75;8453654;28;20232;-62
2021/09/21 04:19:47;;;;;;;6.53;5.80;;;;;;;14.75;51.01;98775.94;8453514;28;20360;-62
2021/09/21 04:23:51;;;;;;;7.63;6.10;;;;;;;14.74;50.75;98783.88;8453146;28;20208;-62
2021/09/21 04:27:54;;;;;;;6.80;6.00;;;;;;;14.66;50.85;98781.63;8453165;28;20230;-62
2021/09/21 04:32:00;;;;;;;6.47;5.80;;;;;;;14.71;51.18;98797.03;8453051;28;20209;-62
2021/09/21 04:36:04;;;;;;;6.40;5.80;;;;;;;14.65;51.14;98799.03;8451769;28;20218;-62
2021/09/21 04:40:09;;;;;;;7.17;5.90;;;;;;;14.66;50.82;98811.16;8452710;28;20490;-62
2021/09/21 04:44:12;;;;;;;7.07;5.67;;;;;;;14.65;50.92;98809.44;8452564;28;20205;-62
2021/09/21 04:48:15;;;;;;;5.93;5.43;;;;;;;14.69;51.01;98824.97;8452338;28;20309;-62
2021/09/21 04:52:18;;;;;;;6.67;5.80;;;;;;;14.63;50.92;98823.47;8452139;28;20198;-62
2021/09/21 04:56:22;;;;;;;8.00;6.13;;;;;;;14.61;50.76;98831.38;8452216;28;20232;-62
2021/09/21 05:00:25;;;;;;;6.10;5.50;;;;;;;14.64;50.66;98827.75;8451772;28;20221;-62
2021/09/21 05:04:28;;;;;;;6.97;5.87;;;;;;;14.57;51.26;98832.44;8450912;28;20268;-62
2021/09/21 05:08:31;;;;;;;8.37;5.93;;;;;;;14.62;50.88;98838.28;8451636;28;20521;-62
2021/09/21 05:12:35;;;;;;;8.07;5.90;;;;;;;14.62;51.36;98840.03;8451512;28;20198;-62
2021/09/21 05:16:39;;;;;;;7.43;6.10;;;;;;;14.61;51.28;98841.78;8451215;28;20198;-62
2021/09/21 05:20:41;;;;;;;7.10;6.00;;;;;;;14.62;51.11;98848.72;8451189;28;20209;-62
2021/09/21 05:24:47;;;;;;;5.93;5.33;;;;;;;14.73;51.31;98860.38;8451333;28;20222;-62
2021/09/21 05:28:51;;;;;;;7.87;6.10;;;;;;;14.60;51.95;98858.38;8450948;28;20222;-62
2021/09/21 05:32:54;;;;;;;6.20;5.60;;;;;;;14.70;51.68;98857.91;8450910;28;20219;-62
2021/09/21 05:36:57;;;;;;;7.07;5.60;;;;;;;14.72;51.42;98841.31;8450883;28;20506;-62
2021/09/21 05:40:59;;;;;;;6.13;5.53;;;;;;;14.80;51.68;98840.94;8450718;28;20205;-62
2021/09/21 05:45:04;;;;;;;6.53;5.30;;;;;;;14.77;51.51;98839.28;8450748;28;20520;-61
2021/09/21 05:49:07;;;;;;;9.97;5.83;;;;;;;14.78;51.55;98841.00;8450050;28;20248;-62
2021/09/21 05:53:10;;;;;;;7.73;5.70;;;;;;;14.74;51.83;98849.06;8450350;28;20198;-62
2021/09/21 05:57:13;;;;;;;7.07;5.93;;;;;;;14.82;51.60;98845.16;8450089;28;20237;-62
2021/09/21 06:01:17;;;;;;;6.53;5.80;;;;;;;14.94;51.74;98851.53;8450249;28;20198;-62
2021/09/21 06:05:21;;;;;;;6.37;5.60;;;;;;;14.97;51.33;98855.78;8450039;28;20198;-62
2021/09/21 06:09:23;;;;;;;7.03;5.60;;;;;;;14.97;51.47;98868.81;8449766;28;20533;-62
2021/09/21 06:13:26;;;;;;;7.23;5.47;;;;;;;14.94;51.53;98875.00;8449757;28;20210;-62
2021/09/21 06:17:31;;;;;;;9.27;5.97;;;;;;;15.03;51.36;98882.41;8449752;28;20206;-62
2021/09/21 06:21:34;;;;;;;6.90;5.73;;;;;;;14.99;51.63;98899.13;8449374;28;20195;-62
2021/09/21 06:25:37;;;;;;;9.87;6.10;;;;;;;15.00;51.69;98908.66;8449662;28;20512;-62
2021/09/21 06:29:40;;;;;;;12.33;6.27;;;;;;;14.92;52.26;98920.34;8449458;28;20226;-62
2021/09/21 06:33:44;;;;;;;11.57;5.73;;;;;;;15.10;51.72;98922.09;8449325;28;20219;-62
2021/09/21 06:37:48;;;;;;;7.60;5.97;;;;;;;15.15;51.82;98932.28;8449428;28;20202;-62
2021/09/21 06:41:51;;;;;;;9.53;5.47;;;;;;;15.11;51.68;98928.16;8449194;28;20198;-62
2021/09/21 06:45:55;;;;;;;7.80;5.47;;;;;;;15.14;51.97;98931.47;8449328;28;20379;-62
2021/09/21 06:50:00;;;;;;;8.23;5.50;;;;;;;15.28;51.23;98940.38;8449169;28;20418;-62
2021/09/21 06:54:03;;;;;;;8.17;5.23;;;;;;;15.41;51.14;98946.72;8449149;28;20204;-62
2021/09/21 06:58:06;;;;;;;5.87;5.00;;;;;;;15.49;50.41;98928.91;8449793;28;20230;-62
2021/09/21 07:02:08;;;;;;;6.93;5.30;;;;;;;15.53;50.28;98927.81;8455539;28;20411;-62
2021/09/21 07:06:13;;;;;;;6.83;5.13;;;;;;;15.36;49.39;98926.03;8455607;28;20367;-62
2021/09/21 07:10:18;;;;;;;7.43;5.20;;;;;;;15.75;49.23;98932.88;8455545;28;20410;-63
2021/09/21 07:14:21;;;;;;;9.33;5.40;;;;;;;15.74;49.02;98935.53;8455593;28;20213;-63
2021/09/21 07:18:24;;;;;;;12.43;5.73;;;;;;;15.92;49.21;98952.91;8455289;28;20206;-62
2021/09/21 07:22:32;;;;;;;10.93;5.53;;;;;;;16.01;48.83;98943.75;8455134;28;20210;-62
2021/09/21 07:26:36;;;;;;;8.97;5.10;;;;;;;16.11;47.89;98954.59;8455424;28;20218;-62
2021/09/21 07:30:39;;;;;;;13.43;5.43;;;;;;;16.14;48.01;98960.50;8454876;28;20404;-62
2021/09/21 07:34:42;;;;;;;11.37;5.67;;;;;;;16.13;47.83;98969.28;8454682;28;20230;-62
2021/09/21 07:38:49;;;;;;;8.23;5.13;;;;;;;16.08;47.68;98983.50;8454731;28;20209;-62
2021/09/21 07:42:51;;;;;;;5.80;4.97;;;;;;;16.06;47.87;98985.34;8454880;28;20205;-62
2021/09/21 07:46:56;;;;;;;7.97;5.27;;;;;;;16.05;47.89;98996.69;8454625;28;20213;-62
2021/09/21 07:51:05;;;;;;;8.23;5.30;;;;;;;16.20;47.66;99009.84;8454197;28;20233;-62
2021/09/21 07:55:10;;;;;;;7.90;4.60;;;;;;;16.17;48.32;99002.16;8454042;28;20238;-62
2021/09/21 07:59:13;;;;;;;13.63;6.17;;;;;;;16.19;47.44;98999.47;8454236;28;20214;-62
2021/09/21 08:03:16;;;;;;;13.90;5.17;;;;;;;16.45;46.55;98995.53;8453667;28;20198;-62
2021/09/21 08:07:19;;;;;;;7.63;5.20;;;;;;;16.53;47.36;98995.13;8453778;28;20198;-62
2021/09/21 08:11:23;;;;;;;6.97;5.77;;;;;;;16.69;45.96;98995.16;8451954;28;20226;-62
2021/09/21 08:15:30;;;;;;;8.70;5.30;;;;;;;16.85;45.99;98993.44;8453631;28;20198;-62
2021/09/21 08:19:33;;;;;;;5.93;5.00;;;;;;;17.43;44.15;98983.31;8453556;28;20206;-62
2021/09/21 08:23:36;;;;;;;46.20;6.37;;;;;;;17.95;43.08;98988.19;8453231;28;20221;-62
2021/09/21 08:27:40;;;;;;;7.50;5.13;;;;;;;17.83;43.06;99000.22;8453147;28;20205;-62
2021/09/21 08:32:02;;;;;;;7.83;5.10;;;;;;;17.95;42.92;98999.56;8453030;28;20225;-62
2021/09/21 08:36:05;;;;;;;8.47;4.90;;;;;;;17.98;42.34;98998.50;8452322;28;20220;-63
2021/09/21 08:40:09;;;;;;;6.63;5.30;;;;;;;18.60;41.23;98990.47;8449317;28;20206;-62
2021/09/21 08:44:13;;;;;;;11.40;5.27;;;;;;;19.13;40.57;98999.44;8452616;28;20198;-62
2021/09/21 08:48:16;;;;;;;10.07;4.80;;;;;;;20.12;42.51;99016.72;8451783;28;20222;-63
2021/09/21 08:52:20;;;;;;;10.67;5.30;;;;;;;19.37;38.20;99019.81;8451478;28;20202;-63
2021/09/21 08:56:23;;;;;;;8.77;4.23;;;;;;;19.47;40.51;99025.31;8441703;28;20552;-60
2021/09/21 09:00:29;;;;;;;7.00;4.63;;;;;;;19.89;41.79;99044.53;8451348;28;20196;-60
2021/09/21 09:04:32;;;;;;;8.47;5.30;;;;;;;19.44;36.06;99034.25;8447814;28;20213;-60
2021/09/21 09:08:37;;;;;;;7.07;4.80;;;;;;;19.60;37.60;99028.84;8451703;28;20332;-60
2021/09/21 09:12:40;;;;;;;6.47;4.77;;;;;;;19.83;35.55;99044.94;8451739;28;20199;-60
2021/09/21 09:16:45;;;;;;;5.93;4.90;;;;;;;19.78;35.88;99052.28;8451401;28;20234;-60
2021/09/21 09:20:48;;;;;;;10.27;4.40;;;;;;;20.26;37.75;99045.56;8450965;28;20494;-60
2021/09/21 09:24:54;;;;;;;6.47;4.30;;;;;;;20.40;35.98;99049.91;8450178;28;20196;-60
2021/09/21 09:28:57;;;;;;;8.30;4.37;;;;;;;20.23;37.40;99044.94;8448112;28;20227;-60
2021/09/21 09:33:03;;;;;;;6.03;4.40;;;;;;;19.69;34.68;99038.78;8450936;28;20234;-60
2021/09/21 09:37:05;;;;;;;6.17;4.43;;;;;;;19.62;35.00;99036.63;8451201;28;20207;-60
2021/09/21 09:41:09;;;;;;;7.07;4.17;;;;;;;20.27;35.35;99039.34;8450682;28;20210;-60
2021/09/21 09:45:13;;;;;;;4.57;4.17;;;;;;;20.81;35.23;99043.63;8449863;28;20199;-60
2021/09/21 09:49:21;;;;;;;6.87;4.30;;;;;;;20.33;32.33;99048.63;8450688;28;20227;-60
2021/09/21 09:53:25;;;;;;;8.07;4.70;;;;;;;20.74;35.59;99045.00;8450624;28;20203;-63
2021/09/21 09:57:32;;;;;;;4.80;4.00;;;;;;;21.29;34.49;99046.38;8449861;28;20539;-62
2021/09/21 10:01:35;;;;;;;5.47;4.60;;;;;;;21.51;32.40;99063.31;8449488;28;20199;-63
2021/09/21 10:05:42;;;;;;;7.73;5.30;;;;;;;20.63;30.92;99064.16;8449195;28;20191;-63
2021/09/21 10:09:47;;;;;;;8.97;4.30;;;;;;;20.40;32.67;99065.69;8446633;28;20214;-63
2021/09/21 10:13:50;;;;;;;4.07;3.67;;;;;;;20.50;31.90;99065.91;8448935;28;20203;-64
2021/09/21 10:17:55;;;;;;;6.53;3.90;;;;;;;20.34;29.80;99066.09;8448931;28;20194;-64
2021/09/21 10:21:59;;;;;;;6.50;4.47;;;;;;;21.36;29.24;99059.97;8448805;28;20196;-63
2021/09/21 10:26:14;;;;;;;5.10;4.60;;;;;;;21.71;29.12;99064.50;8448753;28;20392;-65
2021/09/21 10:30:22;;;;;;;4.57;4.10;;;;;;;21.05;30.87;99071.81;8448557;28;20322;-63
2021/09/21 10:34:25;;;;;;;9.50;4.40;;;;;;;20.88;32.82;99062.47;8448642;28;20295;-61
2021/09/21 10:38:30;;;;;;;15.67;4.10;;;;;;;20.85;33.67;99063.53;8449369;28;20201;-60
2021/09/21 10:42:33;;;;;;;9.03;4.63;;;;;;;20.62;31.65;99061.63;8449253;28;20201;-60
2021/09/21 10:46:50;;;;;;;15.03;4.30;;;;;;;20.63;32.21;99063.31;8449072;28;20198;-60
2021/09/21 10:50:56;;;;;;;8.07;4.23;;;;;;;20.36;31.47;99060.75;8449468;28;20415;-60
2021/09/21 10:55:01;;;;;;;8.33;4.33;;;;;;;20.42;32.43;99063.78;8449131;28;20234;-60
2021/09/21 10:59:14;;;;;;;8.47;4.10;;;;;;;20.72;32.53;99067.94;8449032;28;20511;-61
2021/09/21 11:03:17;;;;;;;8.67;4.10;;;;;;;20.87;32.45;99052.91;8449071;28;20381;-60
2021/09/21 11:07:21;;;;;;;11.63;4.87;;;;;;;20.49;33.16;99057.16;8448513;28;20194;-61
2021/09/21 11:11:34;;;;;;;4.53;4.13;;;;;;;20.36;30.58;99056.31;8448967;28;20230;-60
2021/09/21 11:15:37;;;;;;;6.47;3.90;;;;;;;20.39;32.44;99055.25;8449013;28;20199;-60
2021/09/21 11:19:40;;;;;;;9.37;4.70;;;;;;;19.76;32.00;99060.25;8448827;28;20203;-60
2021/09/21 11:23:43;;;;;;;9.90;4.03;;;;;;;20.08;31.84;99044.16;8448717;28;20200;-60
2021/09/21 11:27:48;;;;;;;5.27;4.17;;;;;;;20.46;28.92;99044.22;8448678;28;20210;-60
2021/09/21 11:31:51;;;;;;;9.17;4.50;;;;;;;21.36;29.05;99059.97;8448482;28;20233;-60
2021/09/21 11:35:55;;;;;;;11.57;4.67;;;;;;;21.34;29.22;99050.47;8448358;28;20218;-60
2021/09/21 11:39:59;;;;;;;7.10;4.13;;;;;;;21.46;30.16;99054.91;8448472;28;20202;-60
2021/09/21 11:44:03;;;;;;;12.93;4.70;;;;;;;21.13;32.58;99056.31;8448634;28;20195;-60
2021/09/21 11:48:08;;;;;;;19.17;5.03;;;;;;;21.05;35.59;99048.13;8454440;28;20206;-60
2021/09/21 11:52:11;;;;;;;14.60;5.30;;;;;;;20.95;34.09;99050.56;8454260;28;20213;-73
2021/09/21 11:56:20;;;;;;;9.07;4.23;;;;;;;20.78;35.09;99038.56;8453514;28;20226;-74
2021/09/21 12:00:27;;;;;;;7.43;4.33;;;;;;;20.67;34.26;99043.72;8452947;28;20204;-60
2021/09/21 12:04:32;;;;;;;8.27;3.97;;;;;;;20.70;35.06;99049.63;8451050;28;20199;-60
2021/09/21 12:08:36;;;;;;;11.00;4.33;;;;;;;20.77;35.32;99046.56;8453631;28;20203;-60
2021/09/21 12:12:39;;;;;;;7.87;4.07;;;;;;;20.78;34.66;99046.47;8453301;28;20233;-60
2021/09/21 12:16:50;;;;;;;15.17;4.63;;;;;;;20.92;35.24;99049.94;8453326;28;20198;-60
2021/09/21 12:20:56;;;;;;;7.57;4.73;;;;;;;21.28;30.59;99052.63;8453171;28;20219;-61
2021/09/21 12:25:06;;;;;;;10.20;4.77;;;;;;;21.11;30.71;99054.75;8453138;28;20211;-63
2021/09/21 12:29:09;;;;;;;6.23;4.27;;;;;;;20.62;30.19;99053.72;8452209;28;20198;-63
2021/09/21 12:33:15;;;;;;;8.20;4.70;;;;;;;20.45;30.08;99052.25;8452225;28;20257;-63
2021/09/21 12:37:18;;;;;;;4.87;4.10;;;;;;;20.15;30.84;99053.34;8452703;28;20276;-63
2021/09/21 12:41:21;;;;;;;5.93;4.63;;;;;;;19.80;31.72;99071.41;8452553;28;20209;-63
2021/09/21 12:45:26;;;;;;;6.07;4.90;;;;;;;19.60;31.35;99062.16;8452775;28;20200;-63
2021/09/21 12:49:31;;;;;;;5.80;4.60;;;;;;;19.69;32.56;99074.72;8452390;28;20206;-63
2021/09/21 12:53:34;;;;;;;5.40;4.20;;;;;;;19.59;32.61;99069.22;8452318;28;20203;-62
2021/09/21 12:57:38;;;;;;;8.77;4.03;;;;;;;19.93;32.92;99067.03;8451333;28;20235;-63
2021/09/21 13:01:41;;;;;;;5.83;4.23;;;;;;;19.99;32.34;99071.06;8451885;28;20213;-63
2021/09/21 13:05:46;;;;;;;5.70;4.50;;;;;;;19.64;32.09;99069.75;8451943;28;20272;-63
2021/09/21 13:09:49;;;;;;;7.40;4.30;;;;;;;19.89;32.67;99065.56;8451739;28;20223;-63
2021/09/21 13:13:52;;;;;;;7.50;4.77;;;;;;;20.67;31.67;99056.88;8451526;28;20236;-63
2021/09/21 13:17:55;;;;;;;5.87;4.10;;;;;;;21.38;29.97;99051.94;8451270;28;20399;-63
2021/09/21 13:21:59;;;;;;;5.00;4.10;;;;;;;21.67;29.42;99053.34;8451405;28;20206;-63
2021/09/21 13:26:02;;;;;;;6.07;4.80;;;;;;;21.96;29.03;99050.38;8451263;28;20221;-63
2021/09/21 13:30:06;;;;;;;6.77;4.30;;;;;;;21.76;29.29;99058.88;8451102;28;20233;-63
2021/09/21 13:34:09;;;;;;;6.60;4.33;;;;;;;21.53;28.55;99055.28;8450911;28;20245;-63
2021/09/21 13:38:19;;;;;;;5.60;4.00;;;;;;;21.42;28.98;99049.00;8450943;28;20198;-63
2021/09/21 13:42:21;;;;;;;4.87;4.43;;;;;;;21.16;29.48;99045.56;8450792;28;20202;-63
2021/09/21 13:46:24;;;;;;;5.47;4.33;;;;;;;21.19;29.17;99042.72;8450699;28;20512;-63
2021/09/21 13:50:28;;;;;;;6.20;4.03;;;;;;;21.52;29.43;99053.63;8450448;28;20283;-64
2021/09/21 13:54:32;;;;;;;8.17;4.50;;;;;;;21.27;28.70;99053.56;8450219;28;20234;-65
2021/09/21 13:58:35;;;;;;;4.57;4.17;;;;;;;21.46;29.07;99052.28;8450203;28;20201;-64
2021/09/21 14:02:37;;;;;;;6.33;4.00;;;;;;;21.66;29.00;99048.19;8450156;28;20517;-64
2021/09/21 14:06:40;;;;;;;4.50;3.83;;;;;;;21.55;29.88;99046.34;8450110;28;20546;-64
2021/09/21 14:10:45;;;;;;;4.20;3.80;;;;;;;21.64;29.21;99042.19;8450084;28;20238;-64
2021/09/21 14:14:48;;;;;;;4.27;3.87;;;;;;;21.59;29.33;99039.03;8449949;28;20221;-65
2021/09/21 14:18:51;;;;;;;7.83;4.07;;;;;;;21.28;29.44;99034.19;8449722;28;20209;-64
2021/09/21 14:22:53;;;;;;;5.43;4.07;;;;;;;21.27;29.25;99032.47;8449608;28;20513;-65
2021/09/21 14:26:59;;;;;;;4.33;3.80;;;;;;;21.32;28.92;99033.94;8449732;28;20207;-65
2021/09/21 14:31:02;;;;;;;6.20;4.00;;;;;;;21.31;29.66;99030.47;8449476;28;20226;-66
2021/09/21 14:35:06;;;;;;;4.50;4.10;;;;;;;21.07;29.58;99023.34;8429100;28;20218;-65
2021/09/21 14:39:09;;;;;;;4.53;4.13;;;;;;;21.18;28.79;99019.13;8449179;28;20204;-64
2021/09/21 14:43:14;;;;;;;4.53;4.00;;;;;;;21.18;30.02;99019.13;8449601;28;20213;-64
2021/09/21 14:47:17;;;;;;;5.47;3.90;;;;;;;21.10;29.23;99027.59;8449075;28;20493;-64
2021/09/21 14:51:20;;;;;;;4.50;4.10;;;;;;;20.91;29.75;99028.03;8448854;28;20233;-65
2021/09/21 14:55:23;;;;;;;7.37;4.27;;;;;;;20.70;30.00;99030.38;8448228;28;20232;-65
2021/09/21 14:59:27;;;;;;;8.33;4.37;;;;;;;20.80;30.48;99031.41;8447866;28;20292;-64
2021/09/21 15:03:30;;;;;;;5.00;3.93;;;;;;;20.92;30.13;99019.16;8448261;28;20204;-64
2021/09/21 15:07:33;;;;;;;4.83;4.40;;;;;;;20.91;29.53;98998.25;8448849;28;20206;-64
2021/09/21 15:11:37;;;;;;;4.40;3.83;;;;;;;20.99;29.89;98983.56;8449071;28;20230;-64
2021/09/21 15:15:43;;;;;;;4.30;3.90;;;;;;;20.82;29.66;99005.81;8448680;28;20388;-64
2021/09/21 15:19:46;;;;;;;4.53;4.10;;;;;;;20.73;29.66;99016.16;8450582;28;20202;-64
2021/09/21 15:23:51;;;;;;;4.73;4.10;;;;;;;20.53;30.46;99009.63;8455194;28;20202;-64
2021/09/21 15:27:54;;;;;;;10.57;4.00;;;;;;;20.36;30.34;99019.50;8455053;28;20206;-64
2021/09/21 15:31:58;;;;;;;9.80;4.13;;;;;;;20.28;31.24;99024.44;8455026;28;20241;-64
2021/09/21 15:36:02;;;;;;;6.30;4.30;;;;;;;20.01;31.46;99019.22;8454790;28;20222;-64
2021/09/21 15:40:07;;;;;;;4.30;3.90;;;;;;;20.05;31.44;99018.09;8453492;28;20199;-64
2021/09/21 15:44:11;;;;;;;5.70;4.00;;;;;;;19.93;31.58;99027.63;8450972;28;20198;-64
2021/09/21 15:48:15;;;;;;;5.10;3.63;;;;;;;19.90;31.79;99031.28;8453298;28;20202;-64
2021/09/21 15:52:18;;;;;;;6.67;3.97;;;;;;;19.76;32.63;99038.41;8453910;28;20535;-64
2021/09/21 15:56:22;;;;;;;8.53;3.77;;;;;;;19.62;32.14;99041.91;8453986;28;20476;-64
2021/09/21 16:00:29;;;;;;;5.47;4.13;;;;;;;19.52;32.60;99046.91;8453444;28;20217;-64
2021/09/21 16:04:34;;;;;;;8.97;3.93;;;;;;;19.44;33.35;99043.91;8453608;28;20199;-64
2021/09/21 16:08:37;;;;;;;6.17;3.90;;;;;;;19.35;33.26;99053.22;8453397;28;20191;-64
2021/09/21 16:12:40;;;;;;;7.57;4.43;;;;;;;19.16;33.04;99071.06;8453403;28;20226;-64
2021/09/21 16:16:43;;;;;;;5.93;4.17;;;;;;;19.13;33.50;99067.72;8452408;28;20202;-64
2021/09/21 16:20:49;;;;;;;6.13;3.90;;;;;;;19.07;34.74;99065.44;8451724;28;20191;-64
2021/09/21 16:24:52;;;;;;;5.67;4.20;;;;;;;19.00;35.18;99072.03;8452072;28;20194;-64
2021/09/21 16:29:00;;;;;;;17.27;4.80;;;;;;;18.94;35.64;99077.63;8451312;28;20392;-64
2021/09/21 16:33:05;;;;;;;15.30;4.10;;;;;;;18.83;35.04;99080.06;8451468;28;20248;-64
2021/09/21 16:37:09;;;;;;;7.83;3.97;;;;;;;18.73;35.70;99085.84;8452838;28;20495;-64
2021/09/21 16:41:13;;;;;;;8.07;4.37;;;;;;;18.62;35.93;99075.16;8451707;28;20206;-65
2021/09/21 16:45:16;;;;;;;8.70;5.50;;;;;;;18.44;36.80;99082.31;8451025;28;20523;-64
2021/09/21 16:49:19;;;;;;;10.30;5.37;;;;;;;18.36;36.32;99080.16;8451015;28;20194;-64
2021/09/21 16:53:24;;;;;;;8.73;4.60;;;;;;;18.39;36.43;99094.03;8449663;28;20224;-64
2021/09/21 16:57:27;;;;;;;7.00;5.20;;;;;;;18.19;36.47;99116.16;8450598;28;20255;-64
2021/09/21 17:01:31;;;;;;;7.23;5.20;;;;;;;18.11;37.36;99121.84;8450335;28;20493;-64
2021/09/21 17:05:35;;;;;;;9.23;5.70;;;;;;;18.01;38.31;99132.00;8449444;28;20197;-65
2021/09/21 17:09:39;;;;;;;20.87;6.13;;;;;;;17.84;38.52;99138.19;8450458;28;20195;-64
2021/09/21 17:13:44;;;;;;;9.37;6.30;;;;;;;17.82;38.75;99137.41;8448023;28;20214;-64
2021/09/21 17:17:47;;;;;;;11.17;5.80;;;;;;;17.79;38.95;99132.31;8451687;28;20213;-64
2021/09/21 17:21:50;;;;;;;9.60;6.23;;;;;;;17.74;39.25;99131.72;8451464;28;20398;-64
2021/09/21 17:25:54;;;;;;;7.50;6.30;;;;;;;17.64;39.42;99136.63;8451444;28;20285;-65
2021/09/21 17:29:58;;;;;;;8.83;5.90;;;;;;;17.62;39.91;99137.66;8451237;28;20194;-64
2021/09/21 17:34:02;;;;;;;11.83;6.40;;;;;;;17.57;39.93;99149.22;8450614;28;20234;-64
2021/09/21 17:38:05;;;;;;;10.83;5.80;;;;;;;17.49;39.57;99137.47;8417123;28;20206;-64
2021/09/21 17:42:11;;;;;;;8.10;6.10;;;;;;;17.39;39.28;99142.34;8422445;28;20208;-64
2021/09/21 17:46:14;;;;;;;8.30;5.43;;;;;;;17.43;39.16;99143.88;8450890;28;20198;-64
2021/09/21 17:50:20;;;;;;;8.47;5.43;;;;;;;17.36;40.10;99142.50;8450702;28;20514;-64
2021/09/21 17:54:23;;;;;;;10.27;6.40;;;;;;;17.28;40.07;99140.28;8449922;28;20222;-65
2021/09/21 17:58:27;;;;;;;7.00;5.53;;;;;;;17.26;39.96;99143.94;8449717;28;20191;-64
2021/09/21 18:02:34;;;;;;;8.63;6.00;;;;;;;17.22;40.58;99139.78;8449761;28;20206;-64
2021/09/21 18:06:40;;;;;;;10.20;6.13;;;;;;;17.09;42.20;99147.44;8449920;28;20230;-64
2021/09/21 18:10:44;;;;;;;6.83;6.13;;;;;;;16.90;42.56;99137.91;8450177;28;20202;-64
2021/09/21 18:14:49;;;;;;;10.07;6.67;;;;;;;16.81;43.46;99140.97;8449689;28;20295;-63
2021/09/21 18:19:39;;;;;;;11.40;8.73;;;;;;;16.82;43.80;99140.09;8449786;28;20222;-64
2021/09/21 18:23:42;;;;;;;9.97;8.63;;;;;;;16.72;43.86;99133.63;8418543;28;20209;-64
2021/09/21 18:27:46;;;;;;;8.17;6.50;;;;;;;16.66;43.85;99145.22;8449809;28;20198;-64
2021/09/21 18:31:50;;;;;;;8.77;7.13;;;;;;;16.56;43.88;99154.44;8449499;28;20222;-64
2021/09/21 18:35:54;;;;;;;8.37;7.23;;;;;;;16.53;44.30;99149.38;8449095;28;20708;-64
2021/09/21 18:39:57;;;;;;;11.30;8.20;;;;;;;16.45;44.25;99146.28;8449293;28;20207;-64
2021/09/21 18:44:01;;;;;;;11.80;8.70;;;;;;;16.33;44.74;99147.75;8449428;28;20240;-64
2021/09/21 18:48:06;;;;;;;8.83;7.60;;;;;;;16.38;44.40;99143.16;8449333;28;20210;-64
2021/09/21 18:52:09;;;;;;;9.73;8.10;;;;;;;16.26;45.07;99147.22;8449066;28;20233;-64
2021/09/21 18:56:12;;;;;;;17.83;8.07;;;;;;;16.31;45.45;99152.22;8453641;28;20226;-64
2021/09/21 19:00:18;;;;;;;12.47;8.33;;;;;;;16.14;45.59;99160.84;8455757;28;20202;-64
2021/09/21 19:04:22;;;;;;;9.47;8.03;;;;;;;15.99;46.35;99159.81;8455609;28;20209;-64
2021/09/21 19:08:25;;;;;;;11.17;7.53;;;;;;;16.00;46.90;99153.69;8455802;28;20210;-64
2021/09/21 19:12:28;;;;;;;10.87;8.07;;;;;;;15.97;46.73;99161.66;8455563;28;20237;-64
2021/09/21 19:16:31;;;;;;;8.53;7.63;;;;;;;15.95;47.26;99166.13;8455364;28;20198;-64